sensor_id;sensor_type;location;lat;lon;timestamp;temperature;humidity
6270;DHT22;3168;51.684;6.954;2024-02-15T00:00:32;11.70;1.00
6270;DHT22;3168;51.684;6.954;2024-02-15T00:02:58;11.70;1.00
6270;DHT22;3168;51.684;6.954;2024-02-15T00:05:25;11.70;1.00
6270;DHT22;3168;51.684;6.954;2024-02-15T00:07:51;11.80;1.00
6270;DHT22;3168;51.684;6.954;2024-02-15T00:10:17;11.70;1.00
6270;DHT22;3168;51.684;6.954;2024-02-15T00:12:43;11.70;1.00
6270;DHT22;3168;51.684;6.954;2024-02-15T00:15:09;11.80;1.00
6270;DHT22;3168;51.684;6.954;2024-02-15T00:17:34;11.70;1.00
6270;DHT22;3168;51.684;6.954;2024-02-15T00:20:01;11.70;1.00
6270;DHT22;3168;51.684;6.954;2024-02-15T00:22:26;11.70;1.00
6270;DHT22;3168;51.684;6.954;2024-02-15T00:24:52;11.70;1.00
6270;DHT22;3168;51.684;6.954;2024-02-15T00:27:18;11.70;1.00
6270;DHT22;3168;51.684;6.954;2024-02-15T00:29:44;11.70;1.00
6270;DHT22;3168;51.684;6.954;2024-02-15T00:32:10;11.70;1.00
6270;DHT22;3168;51.684;6.954;2024-02-15T00:34:36;11.70;1.00
6270;DHT22;3168;51.684;6.954;2024-02-15T00:37:03;11.70;1.00
6270;DHT22;3168;51.684;6.954;2024-02-15T00:39:28;11.70;1.00
6270;DHT22;3168;51.684;6.954;2024-02-15T00:41:55;11.70;1.00
6270;DHT22;3168;51.684;6.954;2024-02-15T00:44:21;11.70;1.00
6270;DHT22;3168;51.684;6.954;2024-02-15T00:46:48;11.70;1.00
6270;DHT22;3168;51.684;6.954;2024-02-15T00:49:13;11.60;1.00
6270;DHT22;3168;51.684;6.954;2024-02-15T00:51:39;11.70;1.00
6270;DHT22;3168;51.684;6.954;2024-02-15T00:54:05;11.70;1.00
6270;DHT22;3168;51.684;6.954;2024-02-15T00:56:31;11.70;1.00
6270;DHT22;3168;51.684;6.954;2024-02-15T00:58:58;11.70;1.00
6270;DHT22;3168;51.684;6.954;2024-02-15T01:01:23;11.70;1.00
6270;DHT22;3168;51.684;6.954;2024-02-15T01:03:49;11.70;1.00
6270;DHT22;3168;51.684;6.954;2024-02-15T01:06:15;11.70;1.00
6270;DHT22;3168;51.684;6.954;2024-02-15T01:08:41;11.70;1.00
6270;DHT22;3168;51.684;6.954;2024-02-15T01:11:07;11.70;1.00
6270;DHT22;3168;51.684;6.954;2024-02-15T01:13:32;11.70;1.00
6270;DHT22;3168;51.684;6.954;2024-02-15T01:15:59;11.70;1.00
6270;DHT22;3168;51.684;6.954;2024-02-15T01:18:25;11.70;1.00
6270;DHT22;3168;51.684;6.954;2024-02-15T01:20:51;11.70;1.00
6270;DHT22;3168;51.684;6.954;2024-02-15T01:23:17;11.70;1.00
6270;DHT22;3168;51.684;6.954;2024-02-15T01:25:42;11.70;1.00
6270;DHT22;3168;51.684;6.954;2024-02-15T01:28:08;11.70;1.00
6270;DHT22;3168;51.684;6.954;2024-02-15T01:30:34;11.70;1.00
6270;DHT22;3168;51.684;6.954;2024-02-15T01:33:00;11.70;1.00
6270;DHT22;3168;51.684;6.954;2024-02-15T01:35:26;11.70;1.00
6270;DHT22;3168;51.684;6.954;2024-02-15T01:37:52;11.70;1.00
6270;DHT22;3168;51.684;6.954;2024-02-15T01:40:18;11.70;1.00
6270;DHT22;3168;51.684;6.954;2024-02-15T01:42:44;11.70;1.00
6270;DHT22;3168;51.684;6.954;2024-02-15T01:45:10;11.70;1.00
6270;DHT22;3168;51.684;6.954;2024-02-15T01:47:35;11.70;1.00
6270;DHT22;3168;51.684;6.954;2024-02-15T01:50:01;11.70;1.00
6270;DHT22;3168;51.684;6.954;2024-02-15T01:52:27;11.70;1.00
6270;DHT22;3168;51.684;6.954;2024-02-15T01:54:53;11.70;1.00
6270;DHT22;3168;51.684;6.954;2024-02-15T01:57:19;11.70;1.00
6270;DHT22;3168;51.684;6.954;2024-02-15T01:59:45;11.70;1.00
6270;DHT22;3168;51.684;6.954;2024-02-15T02:02:11;11.70;1.00
6270;DHT22;3168;51.684;6.954;2024-02-15T02:04:37;11.70;1.00
6270;DHT22;3168;51.684;6.954;2024-02-15T02:07:03;11.80;1.00
6270;DHT22;3168;51.684;6.954;2024-02-15T02:09:28;11.80;1.00
6270;DHT22;3168;51.684;6.954;2024-02-15T02:11:54;11.80;1.00
6270;DHT22;3168;51.684;6.954;2024-02-15T02:14:20;11.70;1.00
6270;DHT22;3168;51.684;6.954;2024-02-15T02:16:47;11.80;1.00
6270;DHT22;3168;51.684;6.954;2024-02-15T02:19:13;11.70;1.00
6270;DHT22;3168;51.684;6.954;2024-02-15T02:21:39;11.80;1.00
6270;DHT22;3168;51.684;6.954;2024-02-15T02:24:13;11.70;1.00
6270;DHT22;3168;51.684;6.954;2024-02-15T02:26:31;11.70;1.00
6270;DHT22;3168;51.684;6.954;2024-02-15T02:28:57;11.70;1.00
6270;DHT22;3168;51.684;6.954;2024-02-15T02:31:23;11.70;1.00
6270;DHT22;3168;51.684;6.954;2024-02-15T02:33:50;11.70;1.00
6270;DHT22;3168;51.684;6.954;2024-02-15T02:36:14;11.70;1.00
6270;DHT22;3168;51.684;6.954;2024-02-15T02:38:40;11.70;1.00
6270;DHT22;3168;51.684;6.954;2024-02-15T02:41:06;11.70;1.00
6270;DHT22;3168;51.684;6.954;2024-02-15T02:43:32;11.70;1.00
6270;DHT22;3168;51.684;6.954;2024-02-15T02:45:58;11.70;1.00
6270;DHT22;3168;51.684;6.954;2024-02-15T02:48:24;11.70;1.00
6270;DHT22;3168;51.684;6.954;2024-02-15T02:50:50;11.70;1.00
6270;DHT22;3168;51.684;6.954;2024-02-15T02:53:15;11.70;1.00
6270;DHT22;3168;51.684;6.954;2024-02-15T02:55:42;11.70;1.00
6270;DHT22;3168;51.684;6.954;2024-02-15T02:58:07;11.70;1.00
6270;DHT22;3168;51.684;6.954;2024-02-15T03:00:34;11.70;1.00
6270;DHT22;3168;51.684;6.954;2024-02-15T03:03:00;11.70;1.00
6270;DHT22;3168;51.684;6.954;2024-02-15T03:05:26;11.70;1.00
6270;DHT22;3168;51.684;6.954;2024-02-15T03:07:51;11.70;1.00
6270;DHT22;3168;51.684;6.954;2024-02-15T03:10:17;11.70;1.00
6270;DHT22;3168;51.684;6.954;2024-02-15T03:12:43;11.70;1.00
6270;DHT22;3168;51.684;6.954;2024-02-15T03:15:09;11.70;1.00
6270;DHT22;3168;51.684;6.954;2024-02-15T03:17:37;11.70;1.00
6270;DHT22;3168;51.684;6.954;2024-02-15T03:20:05;11.70;1.00
6270;DHT22;3168;51.684;6.954;2024-02-15T03:22:31;11.80;1.00
6270;DHT22;3168;51.684;6.954;2024-02-15T03:24:57;11.70;1.00
6270;DHT22;3168;51.684;6.954;2024-02-15T03:27:23;11.70;1.00
6270;DHT22;3168;51.684;6.954;2024-02-15T03:29:49;11.70;1.00
6270;DHT22;3168;51.684;6.954;2024-02-15T03:32:15;11.70;1.00
6270;DHT22;3168;51.684;6.954;2024-02-15T03:34:41;11.70;1.00
6270;DHT22;3168;51.684;6.954;2024-02-15T03:37:07;11.70;1.00
6270;DHT22;3168;51.684;6.954;2024-02-15T03:39:33;11.70;1.00
6270;DHT22;3168;51.684;6.954;2024-02-15T03:41:58;11.70;1.00
6270;DHT22;3168;51.684;6.954;2024-02-15T03:44:24;11.70;1.00
6270;DHT22;3168;51.684;6.954;2024-02-15T03:46:50;11.70;1.00
6270;DHT22;3168;51.684;6.954;2024-02-15T03:49:18;11.70;1.00
6270;DHT22;3168;51.684;6.954;2024-02-15T03:51:44;11.60;1.00
6270;DHT22;3168;51.684;6.954;2024-02-15T03:54:11;11.60;1.00
6270;DHT22;3168;51.684;6.954;2024-02-15T03:56:49;11.70;1.00
6270;DHT22;3168;51.684;6.954;2024-02-15T03:59:14;11.70;1.00
6270;DHT22;3168;51.684;6.954;2024-02-15T04:01:40;11.70;1.00
6270;DHT22;3168;51.684;6.954;2024-02-15T04:04:06;11.70;1.00
6270;DHT22;3168;51.684;6.954;2024-02-15T04:06:31;11.70;1.00
6270;DHT22;3168;51.684;6.954;2024-02-15T04:08:57;11.70;1.00
6270;DHT22;3168;51.684;6.954;2024-02-15T04:11:23;11.70;1.00
6270;DHT22;3168;51.684;6.954;2024-02-15T04:13:49;11.70;1.00
6270;DHT22;3168;51.684;6.954;2024-02-15T04:16:15;11.70;1.00
6270;DHT22;3168;51.684;6.954;2024-02-15T04:18:41;11.80;1.00
6270;DHT22;3168;51.684;6.954;2024-02-15T04:21:07;11.80;1.00
6270;DHT22;3168;51.684;6.954;2024-02-15T04:23:33;11.80;1.00
6270;DHT22;3168;51.684;6.954;2024-02-15T04:25:59;11.80;1.00
6270;DHT22;3168;51.684;6.954;2024-02-15T04:28:25;11.80;1.00
6270;DHT22;3168;51.684;6.954;2024-02-15T04:30:50;11.80;1.00
6270;DHT22;3168;51.684;6.954;2024-02-15T04:33:16;11.80;1.00
6270;DHT22;3168;51.684;6.954;2024-02-15T04:35:42;11.80;1.00
6270;DHT22;3168;51.684;6.954;2024-02-15T04:38:08;11.90;1.00
6270;DHT22;3168;51.684;6.954;2024-02-15T04:40:34;11.80;1.00
6270;DHT22;3168;51.684;6.954;2024-02-15T04:43:00;11.80;1.00
6270;DHT22;3168;51.684;6.954;2024-02-15T04:45:26;11.80;1.00
6270;DHT22;3168;51.684;6.954;2024-02-15T04:47:52;11.80;1.00
6270;DHT22;3168;51.684;6.954;2024-02-15T04:50:17;11.90;1.00
6270;DHT22;3168;51.684;6.954;2024-02-15T04:52:44;11.90;1.00
6270;DHT22;3168;51.684;6.954;2024-02-15T04:55:10;11.90;1.00
6270;DHT22;3168;51.684;6.954;2024-02-15T04:57:36;11.90;1.00
6270;DHT22;3168;51.684;6.954;2024-02-15T05:00:02;11.80;1.00
6270;DHT22;3168;51.684;6.954;2024-02-15T05:02:29;11.90;1.00
6270;DHT22;3168;51.684;6.954;2024-02-15T05:04:55;11.90;1.00
6270;DHT22;3168;51.684;6.954;2024-02-15T05:07:21;11.90;1.00
6270;DHT22;3168;51.684;6.954;2024-02-15T05:09:47;11.90;1.00
6270;DHT22;3168;51.684;6.954;2024-02-15T05:12:13;11.90;1.00
6270;DHT22;3168;51.684;6.954;2024-02-15T05:14:38;11.80;1.00
6270;DHT22;3168;51.684;6.954;2024-02-15T05:17:04;11.80;1.00
6270;DHT22;3168;51.684;6.954;2024-02-15T05:19:30;11.90;1.00
6270;DHT22;3168;51.684;6.954;2024-02-15T05:21:56;11.80;1.00
6270;DHT22;3168;51.684;6.954;2024-02-15T05:24:22;11.90;1.00
6270;DHT22;3168;51.684;6.954;2024-02-15T05:26:48;11.80;1.00
6270;DHT22;3168;51.684;6.954;2024-02-15T05:29:14;11.90;1.00
6270;DHT22;3168;51.684;6.954;2024-02-15T05:31:40;11.80;1.00
6270;DHT22;3168;51.684;6.954;2024-02-15T05:34:06;11.90;1.00
6270;DHT22;3168;51.684;6.954;2024-02-15T05:36:32;11.90;1.00
6270;DHT22;3168;51.684;6.954;2024-02-15T05:38:58;11.90;1.00
6270;DHT22;3168;51.684;6.954;2024-02-15T05:41:23;11.90;1.00
6270;DHT22;3168;51.684;6.954;2024-02-15T05:43:49;11.90;1.00
6270;DHT22;3168;51.684;6.954;2024-02-15T05:46:15;11.90;1.00
6270;DHT22;3168;51.684;6.954;2024-02-15T05:48:42;11.90;1.00
6270;DHT22;3168;51.684;6.954;2024-02-15T05:51:08;11.90;1.00
6270;DHT22;3168;51.684;6.954;2024-02-15T05:53:35;11.90;1.00
6270;DHT22;3168;51.684;6.954;2024-02-15T05:56:02;11.90;1.00
6270;DHT22;3168;51.684;6.954;2024-02-15T05:58:28;11.90;1.00
6270;DHT22;3168;51.684;6.954;2024-02-15T06:00:54;12.00;1.00
6270;DHT22;3168;51.684;6.954;2024-02-15T06:03:21;12.00;1.00
6270;DHT22;3168;51.684;6.954;2024-02-15T06:05:48;12.00;1.00
6270;DHT22;3168;51.684;6.954;2024-02-15T06:08:13;12.10;1.00
6270;DHT22;3168;51.684;6.954;2024-02-15T06:10:39;12.00;1.00
6270;DHT22;3168;51.684;6.954;2024-02-15T06:13:05;12.10;1.00
6270;DHT22;3168;51.684;6.954;2024-02-15T06:15:31;12.10;1.00
6270;DHT22;3168;51.684;6.954;2024-02-15T06:17:57;12.10;1.00
6270;DHT22;3168;51.684;6.954;2024-02-15T06:20:23;12.20;99.90
6270;DHT22;3168;51.684;6.954;2024-02-15T06:22:49;12.20;99.90
6270;DHT22;3168;51.684;6.954;2024-02-15T06:25:15;12.20;99.90
6270;DHT22;3168;51.684;6.954;2024-02-15T06:27:41;12.20;99.90
6270;DHT22;3168;51.684;6.954;2024-02-15T06:30:07;12.20;99.90
6270;DHT22;3168;51.684;6.954;2024-02-15T06:32:39;12.20;99.90
6270;DHT22;3168;51.684;6.954;2024-02-15T06:35:11;12.30;99.90
6270;DHT22;3168;51.684;6.954;2024-02-15T06:37:43;12.30;99.90
6270;DHT22;3168;51.684;6.954;2024-02-15T06:40:15;12.30;99.90
6270;DHT22;3168;51.684;6.954;2024-02-15T06:42:41;12.20;99.90
6270;DHT22;3168;51.684;6.954;2024-02-15T06:45:07;12.10;99.90
6270;DHT22;3168;51.684;6.954;2024-02-15T06:47:33;12.10;99.90
6270;DHT22;3168;51.684;6.954;2024-02-15T06:49:59;12.00;1.00
6270;DHT22;3168;51.684;6.954;2024-02-15T06:52:25;12.00;1.00
6270;DHT22;3168;51.684;6.954;2024-02-15T06:54:51;11.90;1.00
6270;DHT22;3168;51.684;6.954;2024-02-15T06:57:16;11.90;1.00
6270;DHT22;3168;51.684;6.954;2024-02-15T06:59:46;11.80;1.00
6270;DHT22;3168;51.684;6.954;2024-02-15T07:02:09;11.70;1.00
6270;DHT22;3168;51.684;6.954;2024-02-15T07:04:35;11.70;1.00
6270;DHT22;3168;51.684;6.954;2024-02-15T07:07:01;11.70;1.00
6270;DHT22;3168;51.684;6.954;2024-02-15T07:09:27;11.70;1.00
6270;DHT22;3168;51.684;6.954;2024-02-15T07:11:52;11.60;1.00
6270;DHT22;3168;51.684;6.954;2024-02-15T07:14:18;11.60;1.00
6270;DHT22;3168;51.684;6.954;2024-02-15T07:16:45;11.60;1.00
6270;DHT22;3168;51.684;6.954;2024-02-15T07:19:11;11.50;1.00
6270;DHT22;3168;51.684;6.954;2024-02-15T07:21:38;11.60;1.00
6270;DHT22;3168;51.684;6.954;2024-02-15T07:24:04;11.50;1.00
6270;DHT22;3168;51.684;6.954;2024-02-15T07:26:30;11.60;1.00
6270;DHT22;3168;51.684;6.954;2024-02-15T07:28:56;11.60;1.00
6270;DHT22;3168;51.684;6.954;2024-02-15T07:31:23;11.60;1.00
6270;DHT22;3168;51.684;6.954;2024-02-15T07:33:49;11.60;1.00
6270;DHT22;3168;51.684;6.954;2024-02-15T07:36:22;11.60;1.00
6270;DHT22;3168;51.684;6.954;2024-02-15T07:38:50;11.50;1.00
6270;DHT22;3168;51.684;6.954;2024-02-15T07:41:18;11.50;1.00
6270;DHT22;3168;51.684;6.954;2024-02-15T07:43:43;11.60;1.00
6270;DHT22;3168;51.684;6.954;2024-02-15T07:46:11;11.60;1.00
6270;DHT22;3168;51.684;6.954;2024-02-15T07:48:37;11.60;1.00
6270;DHT22;3168;51.684;6.954;2024-02-15T07:51:03;11.60;1.00
6270;DHT22;3168;51.684;6.954;2024-02-15T07:53:29;11.60;1.00
6270;DHT22;3168;51.684;6.954;2024-02-15T07:55:55;11.70;1.00
6270;DHT22;3168;51.684;6.954;2024-02-15T07:58:21;11.70;1.00
6270;DHT22;3168;51.684;6.954;2024-02-15T08:00:47;11.70;1.00
6270;DHT22;3168;51.684;6.954;2024-02-15T08:03:13;11.70;1.00
6270;DHT22;3168;51.684;6.954;2024-02-15T08:05:40;11.80;1.00
6270;DHT22;3168;51.684;6.954;2024-02-15T08:08:06;11.80;1.00
6270;DHT22;3168;51.684;6.954;2024-02-15T08:10:31;11.80;1.00
6270;DHT22;3168;51.684;6.954;2024-02-15T08:12:57;11.80;1.00
6270;DHT22;3168;51.684;6.954;2024-02-15T08:15:24;11.80;1.00
6270;DHT22;3168;51.684;6.954;2024-02-15T08:17:50;11.80;1.00
6270;DHT22;3168;51.684;6.954;2024-02-15T08:20:17;11.80;1.00
6270;DHT22;3168;51.684;6.954;2024-02-15T08:22:43;11.80;1.00
6270;DHT22;3168;51.684;6.954;2024-02-15T08:25:09;11.80;1.00
6270;DHT22;3168;51.684;6.954;2024-02-15T08:27:34;11.70;1.00
6270;DHT22;3168;51.684;6.954;2024-02-15T08:30:00;11.80;1.00
6270;DHT22;3168;51.684;6.954;2024-02-15T08:32:26;11.70;1.00
6270;DHT22;3168;51.684;6.954;2024-02-15T08:34:52;11.70;1.00
6270;DHT22;3168;51.684;6.954;2024-02-15T08:37:20;11.70;1.00
6270;DHT22;3168;51.684;6.954;2024-02-15T08:39:46;11.80;1.00
6270;DHT22;3168;51.684;6.954;2024-02-15T08:42:12;11.80;1.00
6270;DHT22;3168;51.684;6.954;2024-02-15T08:44:38;11.80;1.00
6270;DHT22;3168;51.684;6.954;2024-02-15T08:47:05;11.80;1.00
6270;DHT22;3168;51.684;6.954;2024-02-15T08:49:30;11.90;1.00
6270;DHT22;3168;51.684;6.954;2024-02-15T08:51:56;11.90;1.00
6270;DHT22;3168;51.684;6.954;2024-02-15T08:54:22;11.90;1.00
6270;DHT22;3168;51.684;6.954;2024-02-15T08:56:48;11.90;1.00
6270;DHT22;3168;51.684;6.954;2024-02-15T08:59:14;11.90;1.00
6270;DHT22;3168;51.684;6.954;2024-02-15T09:01:40;11.90;1.00
6270;DHT22;3168;51.684;6.954;2024-02-15T09:04:17;11.80;1.00
6270;DHT22;3168;51.684;6.954;2024-02-15T09:06:44;11.80;1.00
6270;DHT22;3168;51.684;6.954;2024-02-15T09:09:11;11.80;1.00
6270;DHT22;3168;51.684;6.954;2024-02-15T09:11:39;11.70;1.00
6270;DHT22;3168;51.684;6.954;2024-02-15T09:14:09;11.70;1.00
6270;DHT22;3168;51.684;6.954;2024-02-15T09:16:36;11.80;1.00
6270;DHT22;3168;51.684;6.954;2024-02-15T09:19:02;11.80;1.00
6270;DHT22;3168;51.684;6.954;2024-02-15T09:21:28;11.80;1.00
6270;DHT22;3168;51.684;6.954;2024-02-15T09:23:54;11.80;1.00
6270;DHT22;3168;51.684;6.954;2024-02-15T09:26:20;11.80;1.00
6270;DHT22;3168;51.684;6.954;2024-02-15T09:28:46;11.80;1.00
6270;DHT22;3168;51.684;6.954;2024-02-15T09:31:12;11.80;1.00
6270;DHT22;3168;51.684;6.954;2024-02-15T09:33:38;11.80;1.00
6270;DHT22;3168;51.684;6.954;2024-02-15T09:36:04;11.80;1.00
6270;DHT22;3168;51.684;6.954;2024-02-15T09:38:30;11.80;1.00
6270;DHT22;3168;51.684;6.954;2024-02-15T09:40:56;11.90;1.00
6270;DHT22;3168;51.684;6.954;2024-02-15T09:43:22;11.90;1.00
6270;DHT22;3168;51.684;6.954;2024-02-15T09:45:48;11.90;1.00
6270;DHT22;3168;51.684;6.954;2024-02-15T09:48:15;11.90;1.00
6270;DHT22;3168;51.684;6.954;2024-02-15T09:50:42;11.90;1.00
6270;DHT22;3168;51.684;6.954;2024-02-15T09:53:21;11.90;1.00
6270;DHT22;3168;51.684;6.954;2024-02-15T09:55:46;11.90;1.00
6270;DHT22;3168;51.684;6.954;2024-02-15T09:58:12;12.00;1.00
6270;DHT22;3168;51.684;6.954;2024-02-15T10:00:39;12.00;1.00
6270;DHT22;3168;51.684;6.954;2024-02-15T10:03:06;12.00;1.00
6270;DHT22;3168;51.684;6.954;2024-02-15T10:05:34;12.10;1.00
6270;DHT22;3168;51.684;6.954;2024-02-15T10:08:01;12.10;1.00
6270;DHT22;3168;51.684;6.954;2024-02-15T10:10:27;12.10;1.00
6270;DHT22;3168;51.684;6.954;2024-02-15T10:12:53;12.20;1.00
6270;DHT22;3168;51.684;6.954;2024-02-15T10:15:27;12.30;1.00
6270;DHT22;3168;51.684;6.954;2024-02-15T10:17:54;12.20;1.00
6270;DHT22;3168;51.684;6.954;2024-02-15T10:20:20;12.30;1.00
6270;DHT22;3168;51.684;6.954;2024-02-15T10:22:46;12.30;1.00
6270;DHT22;3168;51.684;6.954;2024-02-15T10:25:12;12.30;1.00
6270;DHT22;3168;51.684;6.954;2024-02-15T10:27:39;12.30;1.00
6270;DHT22;3168;51.684;6.954;2024-02-15T10:30:15;12.30;1.00
6270;DHT22;3168;51.684;6.954;2024-02-15T10:32:41;12.30;1.00
6270;DHT22;3168;51.684;6.954;2024-02-15T10:35:07;12.30;1.00
6270;DHT22;3168;51.684;6.954;2024-02-15T10:37:33;12.40;1.00
6270;DHT22;3168;51.684;6.954;2024-02-15T10:40:07;12.40;1.00
6270;DHT22;3168;51.684;6.954;2024-02-15T10:42:33;12.40;1.00
6270;DHT22;3168;51.684;6.954;2024-02-15T10:45:03;12.40;1.00
6270;DHT22;3168;51.684;6.954;2024-02-15T10:47:28;12.50;1.00
6270;DHT22;3168;51.684;6.954;2024-02-15T10:49:54;12.60;1.00
6270;DHT22;3168;51.684;6.954;2024-02-15T10:52:19;12.60;99.90
6270;DHT22;3168;51.684;6.954;2024-02-15T10:54:47;12.70;99.90
6270;DHT22;3168;51.684;6.954;2024-02-15T10:57:13;12.80;99.90
6270;DHT22;3168;51.684;6.954;2024-02-15T10:59:39;12.80;99.90
6270;DHT22;3168;51.684;6.954;2024-02-15T11:02:23;12.90;99.90
6270;DHT22;3168;51.684;6.954;2024-02-15T11:04:46;12.90;99.90
6270;DHT22;3168;51.684;6.954;2024-02-15T11:07:12;13.00;99.90
6270;DHT22;3168;51.684;6.954;2024-02-15T11:09:38;13.00;99.90
6270;DHT22;3168;51.684;6.954;2024-02-15T11:12:05;13.10;99.90
6270;DHT22;3168;51.684;6.954;2024-02-15T11:14:31;13.20;99.90
6270;DHT22;3168;51.684;6.954;2024-02-15T11:16:57;13.30;99.90
6270;DHT22;3168;51.684;6.954;2024-02-15T11:22:14;13.40;99.90
6270;DHT22;3168;51.684;6.954;2024-02-15T11:24:45;13.40;99.90
6270;DHT22;3168;51.684;6.954;2024-02-15T11:27:07;13.40;99.90
6270;DHT22;3168;51.684;6.954;2024-02-15T11:32:23;13.50;99.90
6270;DHT22;3168;51.684;6.954;2024-02-15T11:34:41;13.50;99.90
6270;DHT22;3168;51.684;6.954;2024-02-15T11:37:07;13.60;99.90
6270;DHT22;3168;51.684;6.954;2024-02-15T11:39:40;13.60;99.90
6270;DHT22;3168;51.684;6.954;2024-02-15T11:42:24;13.60;99.90
6270;DHT22;3168;51.684;6.954;2024-02-15T11:44:39;13.70;99.90
6270;DHT22;3168;51.684;6.954;2024-02-15T11:47:05;13.80;99.90
6270;DHT22;3168;51.684;6.954;2024-02-15T11:49:30;13.90;99.90
6270;DHT22;3168;51.684;6.954;2024-02-15T11:51:56;13.90;99.90
6270;DHT22;3168;51.684;6.954;2024-02-15T11:54:22;13.90;99.90
6270;DHT22;3168;51.684;6.954;2024-02-15T11:56:51;13.90;99.90
6270;DHT22;3168;51.684;6.954;2024-02-15T11:59:17;14.10;99.90
6270;DHT22;3168;51.684;6.954;2024-02-15T12:01:44;14.00;99.90
6270;DHT22;3168;51.684;6.954;2024-02-15T12:04:17;14.20;99.90
6270;DHT22;3168;51.684;6.954;2024-02-15T12:06:48;14.20;99.90
6270;DHT22;3168;51.684;6.954;2024-02-15T12:09:20;14.20;99.90
6270;DHT22;3168;51.684;6.954;2024-02-15T12:11:57;14.30;99.90
6270;DHT22;3168;51.684;6.954;2024-02-15T12:14:29;14.30;94.10
6270;DHT22;3168;51.684;6.954;2024-02-15T12:17:03;14.40;85.10
6270;DHT22;3168;51.684;6.954;2024-02-15T12:19:34;14.50;84.30
6270;DHT22;3168;51.684;6.954;2024-02-15T12:22:00;14.50;70.50
6270;DHT22;3168;51.684;6.954;2024-02-15T12:24:26;14.50;65.30
6270;DHT22;3168;51.684;6.954;2024-02-15T12:26:59;14.50;65.20
6270;DHT22;3168;51.684;6.954;2024-02-15T12:29:18;14.60;77.90
6270;DHT22;3168;51.684;6.954;2024-02-15T12:31:44;14.70;72.20
6270;DHT22;3168;51.684;6.954;2024-02-15T12:34:10;14.70;65.20
6270;DHT22;3168;51.684;6.954;2024-02-15T12:36:36;14.80;65.00
6270;DHT22;3168;51.684;6.954;2024-02-15T12:39:03;14.70;64.80
6270;DHT22;3168;51.684;6.954;2024-02-15T12:41:28;14.80;64.90
6270;DHT22;3168;51.684;6.954;2024-02-15T12:43:54;14.80;64.90
6270;DHT22;3168;51.684;6.954;2024-02-15T12:46:20;14.80;65.10
6270;DHT22;3168;51.684;6.954;2024-02-15T12:48:46;14.90;52.70
6270;DHT22;3168;51.684;6.954;2024-02-15T12:51:13;14.80;53.20
6270;DHT22;3168;51.684;6.954;2024-02-15T12:53:39;14.80;60.30
6270;DHT22;3168;51.684;6.954;2024-02-15T12:56:05;14.90;48.50
6270;DHT22;3168;51.684;6.954;2024-02-15T12:58:31;14.90;43.80
6270;DHT22;3168;51.684;6.954;2024-02-15T13:00:57;14.80;46.90
6270;DHT22;3168;51.684;6.954;2024-02-15T13:03:23;14.90;41.00
6270;DHT22;3168;51.684;6.954;2024-02-15T13:05:48;14.90;36.50
6270;DHT22;3168;51.684;6.954;2024-02-15T13:08:15;14.90;38.70
6270;DHT22;3168;51.684;6.954;2024-02-15T13:10:41;14.90;35.00
6270;DHT22;3168;51.684;6.954;2024-02-15T13:13:07;15.00;28.80
6270;DHT22;3168;51.684;6.954;2024-02-15T13:15:33;15.00;30.50
6270;DHT22;3168;51.684;6.954;2024-02-15T13:17:59;15.10;25.50
6270;DHT22;3168;51.684;6.954;2024-02-15T13:20:25;15.10;26.50
6270;DHT22;3168;51.684;6.954;2024-02-15T13:22:56;15.20;26.30
6270;DHT22;3168;51.684;6.954;2024-02-15T13:25:22;15.30;21.10
6270;DHT22;3168;51.684;6.954;2024-02-15T13:27:48;15.30;19.70
6270;DHT22;3168;51.684;6.954;2024-02-15T13:30:14;15.30;13.70
6270;DHT22;3168;51.684;6.954;2024-02-15T13:32:40;15.30;17.30
6270;DHT22;3168;51.684;6.954;2024-02-15T13:35:08;15.30;15.90
6270;DHT22;3168;51.684;6.954;2024-02-15T13:37:34;15.40;5.60
6270;DHT22;3168;51.684;6.954;2024-02-15T13:39:59;15.30;3.90
6270;DHT22;3168;51.684;6.954;2024-02-15T13:42:25;15.40;7.60
6270;DHT22;3168;51.684;6.954;2024-02-15T13:44:51;15.40;7.10
6270;DHT22;3168;51.684;6.954;2024-02-15T13:47:18;15.50;5.90
6270;DHT22;3168;51.684;6.954;2024-02-15T13:49:44;15.60;7.50
6270;DHT22;3168;51.684;6.954;2024-02-15T13:52:10;15.70;6.40
6270;DHT22;3168;51.684;6.954;2024-02-15T13:54:36;15.70;1.00
6270;DHT22;3168;51.684;6.954;2024-02-15T13:57:02;15.80;1.00
6270;DHT22;3168;51.684;6.954;2024-02-15T13:59:28;15.80;1.00
6270;DHT22;3168;51.684;6.954;2024-02-15T14:01:53;15.80;1.00
6270;DHT22;3168;51.684;6.954;2024-02-15T14:04:19;15.80;1.00
6270;DHT22;3168;51.684;6.954;2024-02-15T14:06:45;15.80;1.00
6270;DHT22;3168;51.684;6.954;2024-02-15T14:09:11;15.90;1.00
6270;DHT22;3168;51.684;6.954;2024-02-15T14:11:37;15.80;1.00
6270;DHT22;3168;51.684;6.954;2024-02-15T14:14:04;15.80;1.00
6270;DHT22;3168;51.684;6.954;2024-02-15T14:16:29;15.70;1.00
6270;DHT22;3168;51.684;6.954;2024-02-15T14:18:55;15.80;1.00
6270;DHT22;3168;51.684;6.954;2024-02-15T14:21:21;15.70;1.00
6270;DHT22;3168;51.684;6.954;2024-02-15T14:23:47;15.70;1.00
6270;DHT22;3168;51.684;6.954;2024-02-15T14:26:13;15.80;1.00
6270;DHT22;3168;51.684;6.954;2024-02-15T14:28:39;15.70;1.00
6270;DHT22;3168;51.684;6.954;2024-02-15T14:31:05;15.60;1.00
6270;DHT22;3168;51.684;6.954;2024-02-15T14:33:37;15.70;1.00
6270;DHT22;3168;51.684;6.954;2024-02-15T14:36:03;15.60;1.00
6270;DHT22;3168;51.684;6.954;2024-02-15T14:38:29;15.60;1.00
6270;DHT22;3168;51.684;6.954;2024-02-15T14:40:55;15.60;1.00
6270;DHT22;3168;51.684;6.954;2024-02-15T14:43:22;15.50;1.00
6270;DHT22;3168;51.684;6.954;2024-02-15T14:45:49;15.60;1.00
6270;DHT22;3168;51.684;6.954;2024-02-15T14:48:15;15.50;1.00
6270;DHT22;3168;51.684;6.954;2024-02-15T14:50:41;15.50;1.00
6270;DHT22;3168;51.684;6.954;2024-02-15T14:53:06;15.50;1.00
6270;DHT22;3168;51.684;6.954;2024-02-15T14:55:34;15.50;1.00
6270;DHT22;3168;51.684;6.954;2024-02-15T14:58:00;15.60;1.00
6270;DHT22;3168;51.684;6.954;2024-02-15T15:00:26;15.60;1.00
6270;DHT22;3168;51.684;6.954;2024-02-15T15:02:52;15.60;1.00
6270;DHT22;3168;51.684;6.954;2024-02-15T15:05:17;15.60;1.00
6270;DHT22;3168;51.684;6.954;2024-02-15T15:07:50;15.70;1.00
6270;DHT22;3168;51.684;6.954;2024-02-15T15:10:22;15.60;1.00
6270;DHT22;3168;51.684;6.954;2024-02-15T15:12:53;15.60;1.00
6270;DHT22;3168;51.684;6.954;2024-02-15T15:15:19;15.60;1.00
6270;DHT22;3168;51.684;6.954;2024-02-15T15:17:45;15.60;1.00
6270;DHT22;3168;51.684;6.954;2024-02-15T15:20:12;15.70;1.00
6270;DHT22;3168;51.684;6.954;2024-02-15T15:22:37;15.70;1.00
6270;DHT22;3168;51.684;6.954;2024-02-15T15:25:04;15.70;1.00
6270;DHT22;3168;51.684;6.954;2024-02-15T15:27:30;15.70;1.00
6270;DHT22;3168;51.684;6.954;2024-02-15T15:29:55;15.70;1.00
6270;DHT22;3168;51.684;6.954;2024-02-15T15:32:21;15.70;1.00
6270;DHT22;3168;51.684;6.954;2024-02-15T15:34:47;15.70;1.00
6270;DHT22;3168;51.684;6.954;2024-02-15T15:37:13;15.70;1.00
6270;DHT22;3168;51.684;6.954;2024-02-15T15:39:39;15.70;1.00
6270;DHT22;3168;51.684;6.954;2024-02-15T15:42:05;15.70;1.00
6270;DHT22;3168;51.684;6.954;2024-02-15T15:44:31;15.60;1.00
6270;DHT22;3168;51.684;6.954;2024-02-15T15:46:57;15.60;1.00
6270;DHT22;3168;51.684;6.954;2024-02-15T15:49:23;15.50;1.00
6270;DHT22;3168;51.684;6.954;2024-02-15T15:51:50;15.40;1.00
6270;DHT22;3168;51.684;6.954;2024-02-15T15:54:16;15.40;1.00
6270;DHT22;3168;51.684;6.954;2024-02-15T15:56:41;15.30;1.00
6270;DHT22;3168;51.684;6.954;2024-02-15T15:59:07;15.30;1.00
6270;DHT22;3168;51.684;6.954;2024-02-15T16:01:33;15.20;1.00
6270;DHT22;3168;51.684;6.954;2024-02-15T16:03:59;15.20;1.00
6270;DHT22;3168;51.684;6.954;2024-02-15T16:06:25;15.20;1.00
6270;DHT22;3168;51.684;6.954;2024-02-15T16:08:51;15.20;1.00
6270;DHT22;3168;51.684;6.954;2024-02-15T16:11:17;15.30;1.00
6270;DHT22;3168;51.684;6.954;2024-02-15T16:13:43;15.20;1.00